Fasa, Iran
Current Conditions -  °F | °C
As of 12:50 PM on Tuesday 21 Oct 2014 (Local Time) from OISF Reporting Station
Scattered Clouds Scattered Clouds  
Wind Chill: 82°   Ceiling: Unl
Heat Index: 82°   Visibility: 6mi
Dew Point: 39°   Wind: 16mph
Humidity: 21%   Direction: 240°WSW
Pressure: 30.06"   Gusts: NA
Location:  28.97°N, 53.68°E
Report Text: OISF 210850Z 24014KT 9999 SCT040 28/04 Q1018
Loading
Personal Weather Stations






























Interactive Weather Map
Tropical Storm Tracking
New forecast layout! Learn more

10-Day Weather Forecast

Advertisements
Track Severe Weather on mobile